Time;durP1;ratioP1;P1;durP2;ratioP2;P2;SDS_P1;SDS_P2;PMS_P1;PMS_P2;Temp;Humidity;BMP_temperature;BMP_pressure;BME280_temperature;BME280_humidity;BME280_pressure;Samples;Min_cycle;Max_cycle;Signal;HPM_P1;HPM_P2
2021/06/03 00:01:12;;;;;;;4.60;4.27;;;17.80;99.90;;;;;;5069774;28;20714;-47
2021/06/03 00:03:39;;;;;;;4.27;3.87;;;17.80;99.90;;;;;;5080371;28;20198;-45
2021/06/03 00:06:06;;;;;;;4.17;3.77;;;17.80;99.90;;;;;;5083688;28;20679;-46
2021/06/03 00:08:33;;;;;;;4.50;3.63;;;17.80;99.90;;;;;;5079638;28;20206;-47
2021/06/03 00:11:04;;;;;;;4.50;4.10;;;17.80;99.90;;;;;;5083489;28;20190;-48
2021/06/03 00:13:34;;;;;;;3.77;3.40;;;17.80;99.90;;;;;;5078632;28;20194;-46
2021/06/03 00:16:03;;;;;;;5.70;4.13;;;17.70;99.90;;;;;;5084876;28;20206;-46
2021/06/03 00:18:29;;;;;;;3.97;3.67;;;17.70;99.90;;;;;;5070588;28;20737;-50
2021/06/03 00:20:56;;;;;;;3.93;3.63;;;17.60;99.90;;;;;;5087083;28;20622;-48
2021/06/03 00:23:22;;;;;;;4.20;3.90;;;17.60;99.90;;;;;;5084802;28;20240;-47
2021/06/03 00:25:48;;;;;;;7.77;4.03;;;17.60;99.90;;;;;;5086011;28;20186;-47
2021/06/03 00:28:16;;;;;;;4.73;3.97;;;17.60;99.90;;;;;;5085733;28;20210;-49
2021/06/03 00:30:43;;;;;;;4.03;3.73;;;17.50;99.90;;;;;;5084481;28;20880;-47
2021/06/03 00:33:09;;;;;;;4.73;3.53;;;17.50;99.90;;;;;;5073912;28;20214;-47
2021/06/03 00:35:35;;;;;;;5.20;4.07;;;17.50;99.90;;;;;;5082874;28;20221;-45
2021/06/03 00:38:01;;;;;;;4.10;3.80;;;17.50;99.90;;;;;;5086994;28;20214;-45
2021/06/03 00:40:29;;;;;;;3.83;3.53;;;17.40;99.90;;;;;;5083028;28;20194;-50
2021/06/03 00:42:55;;;;;;;4.30;3.97;;;17.50;99.90;;;;;;5085971;28;20202;-45
2021/06/03 00:45:28;;;;;;;5.27;4.00;;;17.50;99.90;;;;;;5064410;28;20190;-45
2021/06/03 00:47:54;;;;;;;4.77;3.90;;;17.40;99.90;;;;;;5061039;28;20297;-48
2021/06/03 00:50:25;;;;;;;4.63;4.00;;;17.40;99.90;;;;;;5084234;28;20213;-45
2021/06/03 00:52:52;;;;;;;5.63;3.40;;;17.40;99.90;;;;;;5086300;28;20191;-46
2021/06/03 00:55:20;;;;;;;4.43;3.70;;;17.40;99.90;;;;;;5083518;28;20267;-50
2021/06/03 00:57:46;;;;;;;3.90;3.60;;;17.40;99.90;;;;;;5084521;28;20208;-46
2021/06/03 01:00:15;;;;;;;3.77;3.47;;;17.30;99.90;;;;;;5084036;28;20225;-49
2021/06/03 01:02:44;;;;;;;3.93;3.60;;;17.30;99.90;;;;;;5069810;28;20214;-46
2021/06/03 01:05:13;;;;;;;4.50;4.07;;;17.30;99.90;;;;;;5084666;28;20194;-46
2021/06/03 01:07:39;;;;;;;3.93;3.63;;;17.30;99.90;;;;;;5083117;28;20283;-45
2021/06/03 01:10:11;;;;;;;4.07;3.70;;;17.30;99.90;;;;;;5084221;28;20208;-48
2021/06/03 01:12:43;;;;;;;4.20;3.80;;;17.30;99.90;;;;;;5081833;28;20263;-49
2021/06/03 01:15:10;;;;;;;4.30;3.90;;;17.20;99.90;;;;;;5085926;28;20305;-49
2021/06/03 01:17:38;;;;;;;4.43;4.03;;;17.20;99.90;;;;;;5076674;28;20287;-48
2021/06/03 01:20:08;;;;;;;4.07;3.77;;;17.10;99.90;;;;;;5070331;28;20304;-51
2021/06/03 01:22:45;;;;;;;3.73;3.40;;;17.20;99.90;;;;;;5082118;28;20186;-47
2021/06/03 01:25:13;;;;;;;5.60;3.93;;;17.10;99.90;;;;;;5084610;28;20190;-45
2021/06/03 01:27:41;;;;;;;4.17;3.87;;;17.10;99.90;;;;;;5082061;28;20206;-49
2021/06/03 01:30:16;;;;;;;3.87;3.43;;;17.10;99.90;;;;;;5084015;28;20659;-48
2021/06/03 01:32:48;;;;;;;4.70;3.90;;;17.00;99.90;;;;;;5082487;28;20228;-47
2021/06/03 01:35:18;;;;;;;3.80;3.60;;;17.10;99.90;;;;;;5067982;28;20223;-50
2021/06/03 01:37:47;;;;;;;4.17;3.70;;;17.00;99.90;;;;;;5083657;28;20243;-45
2021/06/03 01:40:17;;;;;;;4.33;4.00;;;17.00;99.90;;;;;;5084298;28;20194;-49
2021/06/03 01:42:47;;;;;;;5.27;4.23;;;17.00;99.90;;;;;;5081837;28;20879;-47
2021/06/03 01:45:15;;;;;;;4.37;3.40;;;17.00;99.90;;;;;;5085528;28;20319;-47
2021/06/03 01:47:43;;;;;;;4.63;3.43;;;16.90;99.90;;;;;;5081909;28;20205;-45
2021/06/03 01:50:11;;;;;;;4.13;3.83;;;16.90;99.90;;;;;;5083813;28;20601;-45
2021/06/03 01:52:40;;;;;;;4.00;3.70;;;16.90;99.90;;;;;;5067088;28;20851;-46
2021/06/03 01:55:09;;;;;;;3.97;3.67;;;16.90;99.90;;;;;;5082947;28;20218;-47
2021/06/03 01:57:37;;;;;;;4.57;4.17;;;16.90;99.90;;;;;;5080995;28;20232;-49
2021/06/03 02:00:14;;;;;;;4.07;3.67;;;16.80;99.90;;;;;;5084698;28;20572;-46
2021/06/03 02:02:47;;;;;;;3.97;3.67;;;16.80;99.90;;;;;;5084064;28;20181;-50
2021/06/03 02:05:18;;;;;;;4.70;4.30;;;16.80;99.90;;;;;;5082393;28;20186;-48
2021/06/03 02:07:46;;;;;;;5.03;4.10;;;16.80;99.90;;;;;;5070769;28;20236;-51
2021/06/03 02:10:15;;;;;;;5.27;4.30;;;16.80;99.90;;;;;;5084154;28;20232;-46
2021/06/03 02:12:49;;;;;;;4.63;3.90;;;16.70;99.90;;;;;;5077560;28;20849;-51
2021/06/03 02:15:17;;;;;;;4.23;3.93;;;16.70;99.90;;;;;;5090068;28;20210;-48
2021/06/03 02:17:47;;;;;;;4.13;3.83;;;16.70;99.90;;;;;;5083495;28;20206;-46
2021/06/03 02:20:16;;;;;;;3.90;3.60;;;16.70;99.90;;;;;;5082969;28;20566;-49
2021/06/03 02:22:48;;;;;;;3.60;3.30;;;16.70;99.90;;;;;;5069384;28;21804;-47
2021/06/03 02:25:16;;;;;;;4.63;4.23;;;16.70;99.90;;;;;;5082407;28;20194;-48
2021/06/03 02:27:45;;;;;;;4.30;3.90;;;16.70;99.90;;;;;;5082385;28;20355;-48
2021/06/03 02:30:14;;;;;;;4.53;4.03;;;16.70;99.90;;;;;;5083956;28;20233;-49
2021/06/03 02:32:44;;;;;;;3.70;3.50;;;16.70;99.90;;;;;;5081577;28;20178;-47
2021/06/03 02:35:13;;;;;;;4.63;4.03;;;16.60;99.90;;;;;;5083560;28;20218;-46
2021/06/03 02:37:48;;;;;;;4.30;3.90;;;16.60;99.90;;;;;;5069942;28;20451;-46
2021/06/03 02:40:17;;;;;;;4.77;3.93;;;16.60;99.90;;;;;;5082251;28;20640;-50
2021/06/03 02:42:47;;;;;;;4.43;4.07;;;16.60;99.90;;;;;;5081691;28;20935;-46
2021/06/03 02:45:20;;;;;;;4.90;4.43;;;16.60;99.90;;;;;;5083277;28;20205;-48
2021/06/03 02:47:47;;;;;;;4.07;3.77;;;16.50;99.90;;;;;;5082862;28;20207;-47
2021/06/03 02:50:16;;;;;;;4.00;3.60;;;16.50;99.90;;;;;;5082059;28;20198;-47
2021/06/03 02:52:45;;;;;;;4.80;3.97;;;16.50;99.90;;;;;;5070141;28;20217;-47
2021/06/03 02:55:15;;;;;;;3.80;3.50;;;16.50;99.90;;;;;;5083905;28;20214;-46
2021/06/03 02:57:45;;;;;;;4.33;3.80;;;16.50;99.90;;;;;;5081770;28;20268;-49
2021/06/03 03:00:18;;;;;;;4.60;3.90;;;16.40;99.90;;;;;;5082003;28;20206;-48
2021/06/03 03:02:44;;;;;;;5.63;4.20;;;16.40;99.90;;;;;;5082073;28;20186;-45
2021/06/03 03:05:11;;;;;;;4.40;4.10;;;16.40;99.90;;;;;;5084435;28;20209;-46
2021/06/03 03:07:43;;;;;;;3.80;3.50;;;16.40;99.90;;;;;;5079601;28;20229;-48
2021/06/03 03:10:16;;;;;;;4.23;3.93;;;16.30;99.90;;;;;;5072059;28;20567;-50
2021/06/03 03:12:43;;;;;;;5.40;4.27;;;16.30;99.90;;;;;;5080101;28;20190;-50
2021/06/03 03:15:15;;;;;;;5.00;4.23;;;16.30;99.90;;;;;;5083045;28;20216;-48
2021/06/03 03:17:42;;;;;;;4.67;4.10;;;16.30;99.90;;;;;;5080626;28;20206;-49
2021/06/03 03:20:12;;;;;;;4.50;4.10;;;16.30;99.90;;;;;;5084043;28;20705;-48
2021/06/03 03:22:42;;;;;;;4.73;4.30;;;16.30;99.90;;;;;;5081184;28;20740;-46
2021/06/03 03:25:11;;;;;;;4.00;3.73;;;16.30;99.90;;;;;;5069395;28;20285;-49
2021/06/03 03:27:39;;;;;;;4.90;4.40;;;16.30;99.90;;;;;;5074758;28;20230;-49
2021/06/03 03:30:08;;;;;;;4.67;4.27;;;16.30;99.90;;;;;;5080597;28;20221;-47
2021/06/03 03:32:37;;;;;;;4.30;4.00;;;16.30;99.90;;;;;;5079732;28;20193;-46
2021/06/03 03:35:05;;;;;;;4.67;4.27;;;16.30;99.90;;;;;;5082129;28;20248;-48
2021/06/03 03:37:35;;;;;;;5.00;3.97;;;16.30;99.90;;;;;;5078470;28;20255;-49
2021/06/03 03:40:03;;;;;;;4.57;3.90;;;16.30;99.90;;;;;;5083171;28;20577;-48
2021/06/03 03:42:29;;;;;;;6.10;4.47;;;16.30;99.90;;;;;;5066629;28;20219;-47
2021/06/03 03:44:56;;;;;;;4.50;4.10;;;16.30;99.90;;;;;;5082814;28;20206;-47
2021/06/03 03:47:22;;;;;;;4.80;4.47;;;16.30;99.90;;;;;;5079556;28;20564;-51
2021/06/03 03:49:50;;;;;;;4.83;4.43;;;16.40;99.90;;;;;;5079704;28;20197;-50
2021/06/03 03:52:17;;;;;;;5.43;4.20;;;16.40;99.90;;;;;;5086237;28;20882;-50
2021/06/03 03:54:44;;;;;;;4.67;4.27;;;16.40;99.90;;;;;;5085542;28;20202;-48
2021/06/03 03:57:11;;;;;;;4.73;4.20;;;16.50;99.90;;;;;;5075330;28;20263;-48
2021/06/03 03:59:38;;;;;;;5.13;4.40;;;16.40;99.90;;;;;;5082068;28;20726;-47
2021/06/03 04:02:04;;;;;;;5.30;4.80;;;16.50;99.90;;;;;;5079903;28;20198;-48
2021/06/03 04:04:32;;;;;;;4.30;4.00;;;16.50;99.90;;;;;;5082476;28;20186;-47
2021/06/03 04:07:00;;;;;;;4.63;4.23;;;16.50;99.90;;;;;;5081841;28;20255;-49
2021/06/03 04:09:29;;;;;;;4.30;4.00;;;16.60;99.90;;;;;;5076188;28;20710;-46
2021/06/03 04:11:56;;;;;;;5.20;4.70;;;16.60;99.90;;;;;;5061616;28;20251;-47
2021/06/03 04:14:22;;;;;;;4.73;4.20;;;16.60;99.90;;;;;;5078834;28;20701;-46
2021/06/03 04:16:48;;;;;;;4.33;3.97;;;16.60;99.90;;;;;;5082966;28;20214;-46
2021/06/03 04:19:20;;;;;;;5.67;4.60;;;16.70;99.90;;;;;;5085919;28;20694;-45
2021/06/03 04:21:46;;;;;;;5.47;4.17;;;16.70;99.90;;;;;;5081281;28;20566;-51
2021/06/03 04:24:14;;;;;;;4.43;4.13;;;16.70;99.90;;;;;;5084748;28;20251;-49
2021/06/03 04:26:40;;;;;;;4.63;4.20;;;16.70;99.90;;;;;;5073829;28;20202;-45
2021/06/03 04:29:06;;;;;;;5.80;4.47;;;16.70;99.90;;;;;;5078037;28;20319;-47
2021/06/03 04:31:32;;;;;;;5.47;4.40;;;16.80;99.90;;;;;;5087253;28;20251;-46
2021/06/03 04:33:58;;;;;;;5.23;4.73;;;16.80;99.90;;;;;;5078476;28;20191;-46
2021/06/03 04:36:25;;;;;;;5.17;4.50;;;16.80;99.90;;;;;;5086887;28;20210;-48
2021/06/03 04:38:51;;;;;;;5.10;4.07;;;16.80;99.90;;;;;;5078337;28;20226;-46
2021/06/03 04:41:19;;;;;;;4.27;3.87;;;16.90;99.90;;;;;;5085255;28;20557;-47
2021/06/03 04:43:45;;;;;;;4.63;4.33;;;16.90;99.90;;;;;;5068297;28;20222;-46
2021/06/03 04:46:12;;;;;;;5.87;4.17;;;16.90;99.90;;;;;;5071397;28;20206;-46
2021/06/03 04:48:38;;;;;;;3.90;3.60;;;17.00;99.90;;;;;;5086144;28;20297;-46
2021/06/03 04:51:06;;;;;;;4.80;4.40;;;17.00;99.90;;;;;;5070059;28;20857;-47
2021/06/03 04:53:32;;;;;;;5.40;4.60;;;17.10;99.90;;;;;;5082743;28;20198;-46
2021/06/03 04:55:59;;;;;;;5.47;5.03;;;17.10;99.90;;;;;;5082355;28;20213;-48
2021/06/03 04:58:27;;;;;;;4.77;4.37;;;17.10;99.90;;;;;;5065890;28;20744;-46
2021/06/03 05:00:54;;;;;;;5.10;4.03;;;17.20;99.90;;;;;;5079274;28;20205;-47
2021/06/03 05:03:21;;;;;;;5.30;4.30;;;17.30;99.90;;;;;;5081123;28;20289;-45
2021/06/03 05:05:49;;;;;;;4.93;4.50;;;17.40;99.90;;;;;;5083267;28;20230;-47
2021/06/03 05:08:16;;;;;;;5.47;4.50;;;17.50;99.90;;;;;;5080344;28;20304;-46
2021/06/03 05:10:42;;;;;;;4.30;3.90;;;17.50;99.90;;;;;;5085412;28;20198;-46
2021/06/03 05:13:09;;;;;;;4.30;4.00;;;17.60;99.90;;;;;;5069669;28;20970;-45
2021/06/03 05:15:37;;;;;;;4.27;3.87;;;17.70;99.90;;;;;;5082464;28;20569;-46
2021/06/03 05:18:03;;;;;;;4.27;3.97;;;17.70;99.90;;;;;;5069368;28;21042;-45
2021/06/03 05:20:36;;;;;;;4.80;4.27;;;17.80;99.90;;;;;;5081217;28;20210;-49
2021/06/03 05:23:02;;;;;;;5.10;4.30;;;17.90;99.90;;;;;;5086033;28;20190;-46
2021/06/03 05:25:30;;;;;;;4.97;4.43;;;18.00;99.90;;;;;;5078705;28;20196;-45
2021/06/03 05:27:59;;;;;;;4.20;4.00;;;18.00;99.90;;;;;;5082486;28;20234;-45
2021/06/03 05:30:26;;;;;;;4.50;3.87;;;18.00;99.90;;;;;;5065402;28;20213;-45
2021/06/03 05:32:54;;;;;;;6.93;4.70;;;18.00;99.90;;;;;;5086081;28;20202;-44
2021/06/03 05:35:23;;;;;;;4.57;4.07;;;18.00;99.90;;;;;;5078648;28;20216;-46
2021/06/03 05:37:50;;;;;;;4.90;4.40;;;18.00;99.90;;;;;;5085837;28;20212;-48
2021/06/03 05:40:20;;;;;;;3.93;3.63;;;18.00;99.90;;;;;;5078960;28;20198;-50
2021/06/03 05:42:49;;;;;;;6.50;3.80;;;18.10;99.90;;;;;;5086019;28;20540;-50
2021/06/03 05:45:15;;;;;;;4.40;4.00;;;18.10;99.90;;;;;;5070634;28;20198;-46
2021/06/03 05:47:43;;;;;;;4.93;3.87;;;18.10;99.90;;;;;;5080736;28;20228;-47
2021/06/03 05:50:13;;;;;;;4.50;4.10;;;18.10;99.90;;;;;;5078709;28;20570;-47
2021/06/03 05:52:41;;;;;;;4.80;4.27;;;18.20;99.90;;;;;;5077047;28;20185;-47
2021/06/03 05:55:10;;;;;;;5.43;3.97;;;18.20;99.90;;;;;;5076794;28;20240;-46
2021/06/03 05:57:37;;;;;;;5.97;4.50;;;18.20;99.90;;;;;;5075589;28;20220;-48
2021/06/03 06:00:06;;;;;;;4.93;4.07;;;18.20;99.90;;;;;;5057759;28;20210;-46
2021/06/03 06:02:44;;;;;;;4.60;4.20;;;18.20;99.90;;;;;;5062486;28;20199;-49
2021/06/03 06:07:59;;;;;;;7.97;4.33;;;18.30;99.90;;;;;;5081253;28;20271;-48
2021/06/03 06:10:25;;;;;;;4.23;3.80;;;18.30;99.90;;;;;;5078861;28;20202;-50
2021/06/03 06:12:52;;;;;;;6.73;4.50;;;18.20;99.90;;;;;;5079351;28;20965;-47
2021/06/03 06:15:18;;;;;;;6.37;3.90;;;18.30;99.90;;;;;;5065917;28;20224;-46
2021/06/03 06:17:44;;;;;;;4.10;3.70;;;18.30;99.90;;;;;;5078842;28;20226;-51
2021/06/03 06:20:13;;;;;;;5.13;4.40;;;18.30;99.90;;;;;;5078197;28;20209;-50
2021/06/03 06:22:40;;;;;;;4.43;4.13;;;18.40;99.90;;;;;;5080831;28;20656;-47
2021/06/03 06:25:08;;;;;;;4.90;4.30;;;18.40;99.90;;;;;;5078128;28;20225;-47
2021/06/03 06:27:34;;;;;;;4.30;4.00;;;18.50;99.90;;;;;;5077811;28;20232;-46
2021/06/03 06:30:00;;;;;;;5.83;4.23;;;18.50;99.90;;;;;;5078616;28;21007;-46
2021/06/03 06:32:28;;;;;;;4.67;4.27;;;18.50;99.90;;;;;;5060095;28;20259;-47
2021/06/03 06:34:54;;;;;;;4.57;4.13;;;18.60;99.90;;;;;;5081851;28;20198;-51
2021/06/03 06:37:22;;;;;;;4.43;4.13;;;18.60;99.90;;;;;;5078742;28;20224;-47
2021/06/03 06:39:48;;;;;;;5.83;4.00;;;18.60;99.90;;;;;;5083385;28;20194;-48
2021/06/03 06:42:14;;;;;;;4.50;3.90;;;18.70;99.90;;;;;;5076207;28;20200;-46
2021/06/03 06:44:41;;;;;;;6.83;4.40;;;18.70;99.90;;;;;;5083634;28;20326;-49
2021/06/03 06:47:07;;;;;;;4.50;4.10;;;18.80;99.90;;;;;;5066694;28;20937;-47
2021/06/03 06:49:34;;;;;;;4.73;4.33;;;18.80;99.90;;;;;;5082437;28;20221;-48
2021/06/03 06:52:00;;;;;;;5.53;4.30;;;18.90;99.90;;;;;;5081810;28;20197;-48
2021/06/03 06:54:28;;;;;;;4.93;4.20;;;18.90;99.90;;;;;;5083155;28;20190;-50
2021/06/03 06:56:54;;;;;;;6.20;4.33;;;19.00;99.90;;;;;;5078237;28;20232;-48
2021/06/03 06:59:20;;;;;;;4.93;4.37;;;19.00;99.90;;;;;;5081346;28;20236;-46
2021/06/03 07:01:46;;;;;;;4.50;4.07;;;19.00;99.90;;;;;;5083753;28;20220;-49
2021/06/03 07:04:12;;;;;;;4.97;4.47;;;19.00;99.90;;;;;;5059237;28;20275;-48
2021/06/03 07:06:38;;;;;;;4.60;4.13;;;19.00;99.90;;;;;;5074006;28;20202;-47
2021/06/03 07:09:05;;;;;;;4.83;4.43;;;19.10;99.90;;;;;;5078514;28;20217;-51
2021/06/03 07:11:34;;;;;;;4.83;4.20;;;19.10;99.90;;;;;;5076129;28;20206;-52
2021/06/03 07:14:00;;;;;;;5.50;4.43;;;19.00;99.90;;;;;;5074721;28;20208;-47
2021/06/03 07:16:27;;;;;;;5.00;4.13;;;19.00;99.90;;;;;;5078436;28;20209;-47
2021/06/03 07:18:53;;;;;;;4.97;4.17;;;19.10;99.90;;;;;;5071793;28;20274;-48
2021/06/03 07:21:19;;;;;;;5.00;4.50;;;19.10;99.90;;;;;;5083491;28;20201;-50
2021/06/03 07:23:45;;;;;;;6.97;4.40;;;19.10;99.90;;;;;;5078841;28;20197;-50
2021/06/03 07:26:12;;;;;;;5.33;4.93;;;19.10;99.90;;;;;;5076456;28;20816;-46
2021/06/03 07:28:39;;;;;;;4.73;4.27;;;19.20;99.90;;;;;;5079037;28;20224;-52
2021/06/03 07:31:05;;;;;;;4.43;4.03;;;19.20;99.90;;;;;;5087583;28;20215;-50
2021/06/03 07:33:32;;;;;;;5.63;4.30;;;19.30;99.90;;;;;;5077628;28;20192;-51
2021/06/03 07:35:58;;;;;;;4.70;4.33;;;19.30;99.90;;;;;;5080562;28;20213;-48
2021/06/03 07:38:24;;;;;;;6.33;4.17;;;19.30;99.90;;;;;;5086873;28;20266;-49
2021/06/03 07:40:51;;;;;;;4.73;4.27;;;19.40;99.90;;;;;;5079424;28;20208;-50
2021/06/03 07:43:18;;;;;;;4.67;4.27;;;19.40;99.90;;;;;;5078924;28;20644;-51
2021/06/03 07:45:46;;;;;;;6.47;4.43;;;19.50;99.90;;;;;;5082698;28;20190;-51
2021/06/03 07:48:12;;;;;;;5.27;4.07;;;19.50;99.90;;;;;;5085315;28;20326;-49
2021/06/03 07:50:40;;;;;;;5.53;3.87;;;19.60;99.90;;;;;;5070217;28;20206;-49
2021/06/03 07:53:08;;;;;;;7.37;4.20;;;19.70;99.90;;;;;;5086928;28;20217;-49
2021/06/03 07:55:35;;;;;;;4.83;4.33;;;19.90;99.90;;;;;;5080929;28;20210;-48
2021/06/03 07:58:04;;;;;;;4.83;4.43;;;19.90;99.90;;;;;;5080931;28;20225;-46
2021/06/03 08:00:31;;;;;;;4.83;4.43;;;20.00;99.90;;;;;;5080321;28;20701;-48
2021/06/03 08:02:59;;;;;;;7.33;3.87;;;20.10;99.90;;;;;;5085086;28;20363;-48
2021/06/03 08:05:26;;;;;;;4.60;4.20;;;20.20;99.90;;;;;;5073273;28;20201;-46
2021/06/03 08:07:53;;;;;;;4.93;4.40;;;20.20;99.90;;;;;;5084667;28;20205;-52
2021/06/03 08:10:22;;;;;;;4.27;3.87;;;20.40;99.90;;;;;;5086505;28;20194;-49
2021/06/03 08:12:49;;;;;;;4.47;4.00;;;20.50;99.90;;;;;;5078792;28;20247;-49
2021/06/03 08:15:16;;;;;;;4.70;4.10;;;20.60;99.90;;;;;;5081895;28;20225;-48
2021/06/03 08:17:43;;;;;;;4.43;3.93;;;20.80;99.90;;;;;;5082760;28;20206;-49
2021/06/03 08:20:13;;;;;;;4.73;4.23;;;20.90;99.90;;;;;;5085239;28;20694;-49
2021/06/03 08:22:40;;;;;;;4.50;4.20;;;20.90;99.90;;;;;;5069131;28;20201;-47
2021/06/03 08:25:08;;;;;;;5.13;4.73;;;21.00;99.90;;;;;;5085883;28;20198;-52
2021/06/03 08:27:34;;;;;;;6.40;4.10;;;21.10;99.90;;;;;;5079785;28;20221;-48
2021/06/03 08:30:01;;;;;;;4.77;3.97;;;21.20;99.90;;;;;;5077052;28;20216;-49
2021/06/03 08:32:27;;;;;;;7.67;4.33;;;21.30;99.90;;;;;;5083246;28;20205;-48
2021/06/03 08:34:53;;;;;;;4.30;3.90;;;21.40;99.90;;;;;;5082540;28;20930;-48
2021/06/03 08:37:20;;;;;;;5.47;4.37;;;21.50;99.90;;;;;;5064189;28;20244;-49
2021/06/03 08:39:47;;;;;;;4.67;4.03;;;21.60;99.90;;;;;;5084945;28;20198;-49
2021/06/03 08:42:14;;;;;;;5.00;4.37;;;21.70;99.90;;;;;;5081098;28;20194;-50
2021/06/03 08:44:40;;;;;;;7.47;4.00;;;21.80;99.90;;;;;;5080092;28;20205;-51
2021/06/03 08:47:08;;;;;;;6.03;4.70;;;21.90;99.90;;;;;;5078465;28;20201;-46
2021/06/03 08:49:34;;;;;;;5.57;4.40;;;22.00;99.90;;;;;;5081731;28;20855;-46
2021/06/03 08:52:03;;;;;;;7.10;4.87;;;22.10;99.80;;;;;;5069986;28;20202;-50
2021/06/03 08:54:32;;;;;;;3.90;3.53;;;22.20;99.30;;;;;;5083744;28;20193;-47
2021/06/03 08:56:59;;;;;;;5.80;3.90;;;22.20;98.80;;;;;;5084166;28;20227;-47
2021/06/03 08:59:25;;;;;;;4.47;4.07;;;22.20;98.50;;;;;;5076261;28;20248;-50
2021/06/03 09:01:51;;;;;;;4.60;4.20;;;22.30;98.80;;;;;;5080463;28;20204;-49
2021/06/03 09:04:18;;;;;;;6.40;4.07;;;22.30;98.60;;;;;;5081889;28;20807;-47
2021/06/03 09:06:44;;;;;;;4.23;3.83;;;22.30;98.10;;;;;;5084612;28;20202;-47
2021/06/03 09:09:13;;;;;;;4.27;3.97;;;22.30;98.40;;;;;;5066322;28;20282;-50
2021/06/03 09:11:41;;;;;;;6.23;4.10;;;22.30;98.10;;;;;;5082696;28;20218;-49
2021/06/03 09:14:10;;;;;;;6.53;4.27;;;22.30;97.80;;;;;;5081575;28;20205;-54
2021/06/03 09:16:38;;;;;;;5.93;3.97;;;22.30;97.30;;;;;;5079542;28;20222;-47
2021/06/03 09:19:06;;;;;;;5.27;4.17;;;22.30;97.40;;;;;;5077353;28;20218;-49
2021/06/03 09:21:35;;;;;;;4.33;3.93;;;22.30;97.60;;;;;;5082861;28;20178;-47
2021/06/03 09:24:03;;;;;;;5.17;4.10;;;22.40;97.70;;;;;;5069484;28;20289;-49
2021/06/03 09:26:31;;;;;;;4.30;3.90;;;22.60;98.40;;;;;;5080346;28;20186;-51
2021/06/03 09:29:00;;;;;;;4.50;4.10;;;22.60;97.70;;;;;;5081549;28;20275;-51
2021/06/03 09:31:29;;;;;;;4.13;3.77;;;22.70;97.30;;;;;;5076411;28;20197;-50
2021/06/03 09:34:01;;;;;;;5.10;4.13;;;22.70;97.20;;;;;;5078399;28;20578;-50
2021/06/03 09:36:33;;;;;;;5.90;3.80;;;22.80;97.70;;;;;;5082387;28;20237;-50
2021/06/03 09:39:16;;;;;;;4.57;4.17;;;22.80;97.30;;;;;;5067118;28;20232;-48
2021/06/03 09:41:44;;;;;;;6.37;3.97;;;22.80;97.50;;;;;;5081365;28;20206;-49
2021/06/03 09:44:19;;;;;;;4.78;4.38;;;22.80;97.00;;;;;;5078140;28;20202;-47
2021/06/03 09:46:47;;;;;;;4.53;4.20;;;22.90;96.50;;;;;;5081768;28;20258;-46
2021/06/03 09:49:19;;;;;;;4.33;3.93;;;22.90;96.50;;;;;;5069228;28;20218;-50
2021/06/03 09:51:48;;;;;;;4.77;3.97;;;23.00;96.10;;;;;;5078014;28;20186;-49
2021/06/03 09:54:16;;;;;;;9.13;4.45;;;22.90;96.20;;;;;;5066528;28;20202;-49
2021/06/03 09:56:45;;;;;;;4.93;4.10;;;22.90;96.10;;;;;;5084375;28;20213;-48
2021/06/03 09:59:20;;;;;;;6.60;4.15;;;22.90;96.00;;;;;;5080327;28;20209;-51
2021/06/03 10:01:51;;;;;;;4.40;3.90;;;22.80;95.80;;;;;;5083571;28;20202;-52
2021/06/03 10:04:19;;;;;;;4.55;4.15;;;22.90;96.10;;;;;;5072487;28;20205;-47
2021/06/03 10:07:18;;;;;;;6.47;4.13;;;22.90;95.80;;;;;;5083461;28;20182;-47
2021/06/03 10:10:05;;;;;;;4.37;3.90;;;22.90;95.60;;;;;;5069545;28;20212;-50
2021/06/03 10:12:41;;;;;;;4.60;4.20;;;22.90;96.30;;;;;;5083256;28;20190;-49
2021/06/03 10:15:44;;;;;;;5.22;4.43;;;22.80;96.20;;;;;;5078516;28;20926;-48
2021/06/03 10:18:14;;;;;;;3.97;3.72;;;22.90;96.50;;;;;;5073255;28;20330;-47
2021/06/03 10:20:43;;;;;;;4.15;3.85;;;22.80;96.80;;;;;;5077884;28;20202;-46
2021/06/03 10:23:12;;;;;;;4.55;4.22;;;22.80;96.60;;;;;;5080137;28;20196;-47
2021/06/03 10:25:38;;;;;;;4.60;4.20;;;22.70;96.20;;;;;;5069941;28;20225;-48
2021/06/03 10:28:07;;;;;;;5.22;4.20;;;22.70;96.20;;;;;;5079921;28;20217;-51
2021/06/03 10:30:37;;;;;;;4.50;4.07;;;22.70;96.00;;;;;;5070734;28;21185;-48
2021/06/03 10:33:06;;;;;;;7.10;4.75;;;22.70;96.30;;;;;;5070031;28;20612;-49
2021/06/03 10:35:36;;;;;;;6.43;4.15;;;22.60;96.20;;;;;;5064968;28;20249;-46
2021/06/03 10:38:05;;;;;;;4.97;4.00;;;22.60;96.10;;;;;;5076953;28;20229;-47
2021/06/03 10:40:34;;;;;;;4.70;4.38;;;22.60;96.30;;;;;;5061823;28;20203;-50
2021/06/03 10:43:03;;;;;;;7.82;3.88;;;22.60;96.30;;;;;;5079464;28;20198;-47
2021/06/03 10:45:30;;;;;;;6.40;4.50;;;22.60;96.10;;;;;;5074002;28;20206;-46
2021/06/03 10:47:57;;;;;;;4.60;3.73;;;22.60;96.20;;;;;;5077840;28;20233;-48
2021/06/03 10:50:26;;;;;;;4.95;4.45;;;22.50;96.40;;;;;;5066549;28;20209;-50
2021/06/03 10:52:55;;;;;;;4.57;4.20;;;22.50;96.40;;;;;;5073521;28;20206;-48
2021/06/03 10:55:27;;;;;;;5.72;4.00;;;22.60;96.50;;;;;;5060300;28;20215;-49
2021/06/03 10:57:54;;;;;;;6.40;4.20;;;22.60;97.40;;;;;;5074067;28;20218;-48
2021/06/03 11:00:27;;;;;;;8.27;4.10;;;22.60;97.10;;;;;;5079909;28;20667;-53
2021/06/03 11:02:56;;;;;;;4.28;3.97;;;22.60;97.30;;;;;;5081587;28;20197;-48
2021/06/03 11:05:24;;;;;;;4.85;4.45;;;22.70;97.30;;;;;;5072952;28;20347;-52
2021/06/03 11:07:50;;;;;;;4.78;4.35;;;22.70;97.60;;;;;;5073852;28;20252;-49
2021/06/03 11:10:31;;;;;;;8.15;4.40;;;22.70;97.80;;;;;;5074190;28;20194;-49
2021/06/03 11:13:15;;;;;;;4.27;3.87;;;22.70;97.20;;;;;;5078423;28;20194;-46
2021/06/03 11:16:10;;;;;;;4.60;4.20;;;22.70;97.00;;;;;;5076687;28;20238;-49
2021/06/03 11:19:13;;;;;;;6.63;4.47;;;22.70;98.30;;;;;;5075088;28;20217;-50
2021/06/03 11:22:04;;;;;;;5.47;4.13;;;22.70;97.90;;;;;;5070379;28;20835;-49
2021/06/03 11:24:41;;;;;;;4.93;4.50;;;22.70;98.10;;;;;;5055122;28;20292;-50
2021/06/03 11:27:10;;;;;;;5.50;4.50;;;22.70;98.80;;;;;;5069391;28;20313;-48
2021/06/03 11:29:40;;;;;;;5.40;4.80;;;22.70;99.90;;;;;;5076874;28;21054;-51
2021/06/03 11:32:19;;;;;;;6.50;4.55;;;22.70;99.90;;;;;;5080936;28;20202;-48
2021/06/03 11:34:46;;;;;;;7.68;4.70;;;22.80;99.90;;;;;;5077349;28;20938;-51
2021/06/03 11:37:15;;;;;;;9.88;4.40;;;22.70;99.90;;;;;;5073151;28;20607;-50
2021/06/03 11:39:44;;;;;;;5.45;4.50;;;22.70;99.90;;;;;;5073040;28;20202;-51
2021/06/03 11:42:30;;;;;;;4.47;4.18;;;22.60;99.90;;;;;;5080829;28;20751;-48
2021/06/03 11:45:19;;;;;;;7.05;4.15;;;22.70;99.90;;;;;;5076625;28;20212;-47
2021/06/03 11:48:00;;;;;;;5.25;4.45;;;22.70;99.90;;;;;;5076307;28;20210;-48
2021/06/03 11:51:00;;;;;;;4.40;3.95;;;22.70;99.90;;;;;;5075080;28;20277;-54
2021/06/03 11:53:28;;;;;;;5.47;4.43;;;22.70;99.90;;;;;;5073684;28;20601;-52
2021/06/03 11:55:56;;;;;;;5.10;4.65;;;22.70;99.90;;;;;;5077572;28;20238;-49
2021/06/03 11:58:30;;;;;;;4.70;4.13;;;22.70;99.90;;;;;;5068904;28;20242;-47
2021/06/03 12:01:00;;;;;;;4.88;4.47;;;22.60;99.90;;;;;;5080067;28;20194;-48
2021/06/03 12:03:38;;;;;;;5.55;3.95;;;22.60;99.90;;;;;;5074648;28;20229;-52
2021/06/03 12:06:07;;;;;;;7.30;3.85;;;22.50;99.90;;;;;;5078219;28;20686;-50
2021/06/03 12:08:46;;;;;;;3.80;3.50;;;22.60;99.90;;;;;;5073882;28;20225;-50
2021/06/03 12:11:15;;;;;;;4.60;4.20;;;22.60;99.90;;;;;;5075350;28;20198;-45
2021/06/03 12:13:44;;;;;;;4.45;3.53;;;22.60;99.70;;;;;;5070018;28;20364;-48
2021/06/03 12:16:10;;;;;;;6.82;4.00;;;22.60;98.90;;;;;;5086146;28;20206;-48
2021/06/03 12:18:39;;;;;;;3.90;3.33;;;22.60;98.70;;;;;;5079162;28;20236;-53
2021/06/03 12:21:10;;;;;;;7.45;3.65;;;22.50;99.40;;;;;;5081959;28;20205;-45
2021/06/03 12:23:46;;;;;;;4.10;3.70;;;22.50;99.30;;;;;;5075390;28;20205;-51
2021/06/03 12:26:17;;;;;;;5.40;4.00;;;22.40;99.60;;;;;;5083751;28;20182;-49
2021/06/03 12:28:45;;;;;;;4.80;3.95;;;22.40;99.00;;;;;;5082814;28;21002;-49
2021/06/03 12:31:21;;;;;;;6.55;4.20;;;22.40;99.30;;;;;;5064960;28;20216;-49
2021/06/03 12:33:47;;;;;;;28.55;6.50;;;22.40;99.90;;;;;;5084044;28;20197;-46
2021/06/03 12:36:13;;;;;;;38.85;6.75;;;22.30;99.90;;;;;;5084043;28;20202;-53
2021/06/03 12:38:42;;;;;;;22.67;6.18;;;22.10;99.90;;;;;;5077036;28;20218;-49
2021/06/03 12:41:21;;;;;;;8.93;4.32;;;22.10;99.90;;;;;;5085147;28;20198;-47
2021/06/03 12:43:52;;;;;;;11.53;4.80;;;22.10;99.90;;;;;;5090165;28;20273;-46
2021/06/03 12:46:18;;;;;;;4.70;3.67;;;22.20;99.90;;;;;;5068744;27;20214;-51
2021/06/03 12:48:44;;;;;;;9.60;3.95;;;22.20;99.90;;;;;;5082501;28;20214;-51
2021/06/03 12:51:13;;;;;;;5.15;4.28;;;22.30;99.90;;;;;;5084609;28;20272;-49
2021/06/03 12:53:40;;;;;;;12.80;5.25;;;22.30;99.90;;;;;;5077174;28;20202;-48
2021/06/03 12:56:11;;;;;;;8.18;4.60;;;22.20;99.90;;;;;;5085238;28;20198;-49
2021/06/03 12:58:37;;;;;;;9.05;4.47;;;22.00;99.90;;;;;;5080396;28;20931;-45